Axtell, UT

7:15 PM MDT on August 21, 2014 (GMT -0600)
MesoWest I-15 @ Scipio Summit UT US UTAH DOT | Change Station
CLOSE
Current Station
Personal Weather Station
Location: Scipio, UT
Elevation: 5959 ft
Nearby Weather Stations

Elev 5959 ft 39.20 °N, 112.17 °W | Updated 45 minutes ago

Partly Cloudy
Partly Cloudy
75 °F
Feels Like 76 °F
N
6
Wind Variable Wind from WSW
Gusts 16.0 mph

Today
High -- | Low -- °F
--% Chance of Precip.
Yesterday
High -- | Low -- °F
Precip. -- in
6:45 AM 8:13 PM
Waning Crescent, 11% visible
Pressure 29.94 in
Visibility 10.0 miles
Clouds Few 2700 ft
Scattered Clouds 10000 ft
Scattered Clouds 11000 ft
Heat Index 76 °F
Dew Point 35 °F
Humidity 24%
Rainfall -999.00 in
Snow Depth 0 in
UV 1 out of 12
Pollen 8.10 out of 12
Air Quality Not available.
Flu Activity Not available.
METAR KPUC 220053Z AUTO 06006KT 10SM FEW027 SCT100 SCT110 23/07 A3013 RMK AO2 RAB41E53 SLP139 P0000 T02330072

More Conditions Fewer Conditions

Pressure 29.94 in
Visibility 10.0 miles
Clouds Few 2700 ft
Scattered Clouds 10000 ft
Scattered Clouds 11000 ft
Heat Index 76 °F
Dew Point 35 °F
Humidity 24%
Rainfall -999.00 in
Snow Depth 0 in
UV 1 out of 12
Pollen 8.10 out of 12
Air Quality Not available.
Flu Activity Not available.
METAR KPUC 220053Z AUTO 06006KT 10SM FEW027 SCT100 SCT110 23/07 A3013 RMK AO2 RAB41E53 SLP139 P0000 T02330072

More Conditions Fewer Conditions

10-Day Weather Forecast

Almanac

Astronomy

Aug. 21, 2014 Rise Set
Actual Time 6:45 AM MDT 8:13 PM MDT
Civil Twilight 6:17 AM MDT 8:41 PM MDT
Nautical Twilight 5:43 AM MDT 9:15 PM MDT
Astronomical Twilight 5:08 AM MDT 9:51 PM MDT
Moon 3:20 AM MDT (8/21) 5:44 PM MDT (8/21)
Length of Visible Light 14h 24m
Length of Day
13h 27m
Tomorrow will be 2m 21s shorter.
Waning Crescent, 11% of the Moon is Illuminated
Today
Waning Crescent
Aug 25
New
Sep 2
First Quarter
Sep 8
Full
Sep 15
Last Quarter

Today's Extremes

State Highs State Lows

Community

WunderPhotos

Upload Photos

1,746,098 photos uploaded!

Nearby

Snow Depth

Station Depth Elevation
Pickle Keg 0 in 9600 ft
Gooseberry R.S. 0 in 7920 ft
Agua Canyon 2 in 8900 ft
Rock Creek 0 in 7900 ft
Trial Lake 1 in 9960 ft

Earthquake Activity

City Distance Mag. Time & Date
No recent earthquake activity has been reported nearby.
Minimum magnitude displayed is 2.5.

Coastal Water Temperatures

Place Temperature
No Stations Reporting

Nearby Weather Stations